Time;durP1;ratioP1;P1;durP2;ratioP2;P2;SDS_P1;SDS_P2;PMS_P1;PMS_P2;Temp;Humidity;BMP_temperature;BMP_pressure;BME280_temperature;BME280_humidity;BME280_pressure;Samples;Min_cycle;Max_cycle;Signal;HPM_P1;HPM_P2
2024/01/10 00:00:49;;;;;;;16.75;10.18;;;;;;;-2.49;50.82;97401.25;4901949;29;20165;-80
2024/01/10 00:03:17;;;;;;;20.73;11.93;;;;;;;-2.47;52.22;97405.44;4901776;29;20573;-80
2024/01/10 00:05:46;;;;;;;20.05;10.48;;;;;;;-2.42;53.06;97400.91;4902055;29;20144;-80
2024/01/10 00:08:14;;;;;;;21.70;11.02;;;;;;;-2.36;53.58;97403.97;4901789;29;20052;-80
2024/01/10 00:10:41;;;;;;;21.75;11.00;;;;;;;-2.33;53.24;97402.97;4901627;29;20493;-80
2024/01/10 00:13:09;;;;;;;21.55;10.65;;;;;;;-2.31;53.62;97401.16;4900840;29;20056;-80
2024/01/10 00:15:37;;;;;;;19.33;10.27;;;;;;;-2.35;52.07;97399.69;4901646;29;20139;-80
2024/01/10 00:18:05;;;;;;;18.38;11.63;;;;;;;-2.38;53.51;97393.00;4901389;29;20067;-80
2024/01/10 00:20:32;;;;;;;19.70;10.70;;;;;;;-2.37;52.81;97397.19;4901300;29;20527;-79
2024/01/10 00:23:01;;;;;;;19.52;9.73;;;;;;;-2.43;51.92;97401.81;4900625;29;20084;-80
2024/01/10 00:25:29;;;;;;;19.65;9.88;;;;;;;-2.43;51.75;97394.16;4901423;29;20052;-80
2024/01/10 00:27:57;;;;;;;18.65;9.77;;;;;;;-2.43;51.74;97389.03;4901405;29;20052;-80
2024/01/10 00:30:26;;;;;;;19.45;9.90;;;;;;;-2.47;51.55;97390.94;4901780;29;20108;-81
2024/01/10 00:32:54;;;;;;;18.05;9.85;;;;;;;-2.43;52.64;97386.47;4901043;29;20092;-80
2024/01/10 00:35:22;;;;;;;17.67;9.38;;;;;;;-2.40;52.76;97394.00;4901197;29;20060;-80
2024/01/10 00:37:49;;;;;;;16.95;9.68;;;;;;;-2.40;51.85;97383.78;4901281;29;20057;-80
2024/01/10 00:40:19;;;;;;;16.67;8.82;;;;;;;-2.45;51.19;97383.19;4901426;29;20055;-80
2024/01/10 00:42:48;;;;;;;19.35;10.70;;;;;;;-2.47;51.22;97390.94;4901461;29;20053;-80
2024/01/10 00:45:16;;;;;;;20.98;10.55;;;;;;;-2.50;50.92;97394.47;4900983;29;20100;-79
2024/01/10 00:47:44;;;;;;;16.98;9.98;;;;;;;-2.51;51.31;97390.28;4901915;29;20473;-80
2024/01/10 00:50:12;;;;;;;16.13;9.32;;;;;;;-2.49;52.02;97396.13;4900939;29;20121;-80
2024/01/10 00:52:40;;;;;;;17.27;10.57;;;;;;;-2.46;51.45;97391.75;4900352;29;20056;-80
2024/01/10 00:55:08;;;;;;;19.88;10.18;;;;;;;-2.46;53.08;97387.47;4900539;29;20512;-80
2024/01/10 00:57:38;;;;;;;21.60;10.80;;;;;;;-2.46;52.53;97386.66;4900513;29;20104;-80
2024/01/10 01:00:06;;;;;;;16.00;8.75;;;;;;;-2.49;52.16;97387.66;4901942;29;20466;-79
2024/01/10 01:02:34;;;;;;;18.83;10.27;;;;;;;-2.47;52.88;97382.44;4900738;29;20052;-80
2024/01/10 01:05:03;;;;;;;17.15;9.07;;;;;;;-2.41;53.29;97392.34;4900139;29;20063;-80
2024/01/10 01:07:31;;;;;;;19.63;10.52;;;;;;;-2.46;53.25;97391.75;4918724;29;20124;-82
2024/01/10 01:09:58;;;;;;;16.58;9.50;;;;;;;-2.51;52.65;97395.38;4920586;29;20056;-81
2024/01/10 01:12:26;;;;;;;19.63;10.13;;;;;;;-2.53;52.02;97388.72;4920165;29;20046;-79
2024/01/10 01:14:55;;;;;;;20.02;10.40;;;;;;;-2.52;51.95;97393.72;4920664;29;20069;-81
2024/01/10 01:17:22;;;;;;;17.90;9.70;;;;;;;-2.51;52.37;97395.38;4905495;29;20104;-80
2024/01/10 01:19:50;;;;;;;18.45;10.02;;;;;;;-2.53;51.99;97401.50;4901975;29;20056;-79
2024/01/10 01:22:18;;;;;;;19.58;10.02;;;;;;;-2.56;51.71;97415.25;4901712;29;20061;-80
2024/01/10 01:24:45;;;;;;;20.42;10.63;;;;;;;-2.59;52.16;97407.72;4902476;29;20059;-80
2024/01/10 01:27:13;;;;;;;18.08;9.63;;;;;;;-2.59;52.64;97407.72;4902032;29;20086;-80
2024/01/10 01:29:41;;;;;;;18.73;10.30;;;;;;;-2.53;54.12;97409.97;4901745;29;20151;-80
2024/01/10 01:32:09;;;;;;;18.55;9.85;;;;;;;-2.44;55.87;97411.22;4900946;29;20063;-81
2024/01/10 01:34:37;;;;;;;19.15;10.60;;;;;;;-2.36;55.61;97403.13;4901361;29;20080;-80
2024/01/10 01:37:05;;;;;;;19.67;10.57;;;;;;;-2.33;55.28;97400.41;4901434;29;20136;-80
2024/01/10 01:39:32;;;;;;;21.42;10.40;;;;;;;-2.37;55.35;97401.50;4901767;29;20061;-81
2024/01/10 01:42:00;;;;;;;18.77;10.35;;;;;;;-2.39;54.42;97408.41;4900458;29;20059;-80
2024/01/10 01:44:28;;;;;;;19.10;11.25;;;;;;;-2.46;53.37;97402.00;4900816;29;20429;-80
2024/01/10 01:46:56;;;;;;;22.13;11.43;;;;;;;-2.54;52.90;97400.63;4901540;29;20408;-80
2024/01/10 01:49:26;;;;;;;20.77;10.90;;;;;;;-2.58;54.16;97404.28;4901596;29;20084;-80
2024/01/10 01:51:53;;;;;;;19.30;11.27;;;;;;;-2.55;54.62;97393.91;4902167;29;20197;-78
2024/01/10 01:54:23;;;;;;;20.55;10.73;;;;;;;-2.52;54.47;97398.00;4901487;29;20091;-79
2024/01/10 01:56:51;;;;;;;23.13;11.98;;;;;;;-2.47;54.93;97393.50;4903669;29;20116;-78
2024/01/10 01:59:20;;;;;;;20.60;11.55;;;;;;;-2.41;55.75;97400.00;4902245;29;20405;-78
2024/01/10 02:01:48;;;;;;;20.70;10.93;;;;;;;-2.39;54.37;97398.19;4900852;29;20067;-78
2024/01/10 02:04:15;;;;;;;23.70;10.95;;;;;;;-2.38;53.84;97399.84;4901905;29;20056;-78
2024/01/10 02:06:44;;;;;;;22.77;11.77;;;;;;;-2.38;53.39;97399.84;4900737;29;20140;-78
2024/01/10 02:09:13;;;;;;;22.52;12.25;;;;;;;-2.41;52.89;97392.34;4901894;29;20135;-78
2024/01/10 02:11:40;;;;;;;18.35;10.73;;;;;;;-2.50;52.79;97391.91;4902151;29;20087;-78
2024/01/10 02:14:08;;;;;;;22.38;11.57;;;;;;;-2.54;53.10;97395.53;4903210;29;20045;-78
2024/01/10 02:16:36;;;;;;;20.98;10.65;;;;;;;-2.60;52.68;97390.78;4901567;29;20140;-79
2024/01/10 02:19:18;;;;;;;25.10;11.35;;;;;;;-2.65;53.11;97397.81;4902581;29;20528;-80
2024/01/10 02:21:47;;;;;;;16.95;10.23;;;;;;;-2.65;54.10;97395.28;4903238;29;20115;-78
2024/01/10 02:24:15;;;;;;;20.08;10.25;;;;;;;-2.62;53.73;97391.75;4908092;29;20037;-78
2024/01/10 02:26:44;;;;;;;17.42;9.88;;;;;;;-2.65;53.30;97395.28;4919603;29;20116;-77
2024/01/10 02:29:11;;;;;;;20.38;10.75;;;;;;;-2.69;53.06;97391.22;4919813;29;20053;-78
2024/01/10 02:31:39;;;;;;;20.48;10.73;;;;;;;-2.68;53.58;97402.28;4919183;29;20044;-78
2024/01/10 02:34:07;;;;;;;23.20;11.50;;;;;;;-2.67;53.21;97399.63;4905833;29;20545;-77
2024/01/10 02:36:34;;;;;;;26.30;12.15;;;;;;;-2.63;53.95;97390.91;4904491;29;20095;-78
2024/01/10 02:39:02;;;;;;;19.83;12.32;;;;;;;-2.56;53.99;97387.16;4906624;29;20065;-77
2024/01/10 02:41:30;;;;;;;18.08;10.52;;;;;;;-2.50;54.21;97391.91;4902231;29;20048;-78
2024/01/10 02:43:59;;;;;;;21.63;11.38;;;;;;;-2.53;52.99;97375.94;4902067;29;20053;-78
2024/01/10 02:46:28;;;;;;;22.83;11.70;;;;;;;-2.57;53.50;97385.47;4902450;29;20092;-78
2024/01/10 02:48:56;;;;;;;24.58;11.57;;;;;;;-2.57;54.56;97382.94;4902746;29;20519;-78
2024/01/10 02:51:27;;;;;;;23.13;11.90;;;;;;;-2.56;54.03;97384.59;4903337;29;20143;-78
2024/01/10 02:53:55;;;;;;;20.08;11.35;;;;;;;-2.55;54.03;97378.56;4901563;29;20493;-78
2024/01/10 02:56:22;;;;;;;22.27;11.77;;;;;;;-2.52;53.68;97375.03;4902795;29;20587;-78
2024/01/10 02:58:50;;;;;;;17.58;9.85;;;;;;;-2.53;53.19;97366.53;4902309;29;20421;-78
2024/01/10 03:01:19;;;;;;;19.92;11.30;;;;;;;-2.55;53.33;97368.34;4903616;29;20052;-80
2024/01/10 03:03:47;;;;;;;20.65;11.18;;;;;;;-2.53;54.79;97368.28;4904067;29;20112;-79
2024/01/10 03:06:14;;;;;;;20.67;11.27;;;;;;;-2.50;54.53;97370.66;4902406;29;20437;-78
2024/01/10 03:08:42;;;;;;;22.88;12.20;;;;;;;-2.50;55.54;97363.81;4902857;29;20048;-78
2024/01/10 03:11:10;;;;;;;20.92;12.13;;;;;;;-2.40;56.98;97365.91;4901630;29;20056;-78
2024/01/10 03:13:38;;;;;;;21.40;11.38;;;;;;;-2.32;56.81;97371.41;4900396;29;20428;-78
2024/01/10 03:16:06;;;;;;;20.52;10.88;;;;;;;-2.33;55.99;97362.91;4901149;29;20504;-78
2024/01/10 03:18:35;;;;;;;19.83;10.52;;;;;;;-2.35;54.51;97369.00;4900987;29;20117;-78
2024/01/10 03:21:03;;;;;;;17.88;10.75;;;;;;;-2.43;53.59;97368.59;4901864;29;20053;-78
2024/01/10 03:23:31;;;;;;;22.63;11.65;;;;;;;-2.47;53.61;97362.00;4901838;29;20080;-78
2024/01/10 03:25:58;;;;;;;20.92;10.60;;;;;;;-2.50;53.51;97361.25;4901832;29;20462;-78
2024/01/10 03:28:26;;;;;;;18.80;10.27;;;;;;;-2.54;52.92;97354.66;4905839;29;20052;-78
2024/01/10 03:30:54;;;;;;;20.08;10.90;;;;;;;-2.61;52.70;97358.44;4908445;29;20139;-80
2024/01/10 03:33:21;;;;;;;19.63;10.82;;;;;;;-2.67;52.50;97363.06;4909023;29;20094;-78
2024/01/10 03:35:50;;;;;;;18.60;10.25;;;;;;;-2.72;52.79;97361.56;4908179;29;20076;-78
2024/01/10 03:38:18;;;;;;;18.73;12.15;;;;;;;-2.77;52.44;97362.72;4908005;29;20087;-78
2024/01/10 03:40:45;;;;;;;23.08;12.15;;;;;;;-2.87;52.52;97361.56;4908807;29;20133;-78
2024/01/10 03:43:13;;;;;;;16.98;10.15;;;;;;;-2.94;52.67;97366.97;4908498;29;20129;-78
2024/01/10 03:45:41;;;;;;;24.38;11.70;;;;;;;-2.99;52.80;97358.75;4920120;29;20044;-77
2024/01/10 03:48:09;;;;;;;20.55;11.43;;;;;;;-3.00;52.86;97366.47;4921657;29;20057;-77
2024/01/10 03:50:36;;;;;;;19.40;10.50;;;;;;;-3.01;52.92;97358.00;4918817;29;20076;-80
2024/01/10 03:53:06;;;;;;;22.77;12.63;;;;;;;-2.97;54.70;97356.94;4911855;29;20052;-78
2024/01/10 03:55:33;;;;;;;19.75;11.10;;;;;;;-2.91;54.08;97355.78;4911308;29;20053;-78
2024/01/10 03:58:01;;;;;;;21.48;11.45;;;;;;;-2.90;53.50;97358.25;4911195;29;20056;-79
2024/01/10 04:00:29;;;;;;;22.85;11.05;;;;;;;-2.88;53.21;97359.91;4910290;29;20052;-78
2024/01/10 04:02:56;;;;;;;20.38;10.80;;;;;;;-2.90;53.06;97358.25;4909198;29;20087;-80
2024/01/10 04:05:25;;;;;;;21.15;10.82;;;;;;;-2.90;53.99;97353.16;4909385;29;20421;-78
2024/01/10 04:07:52;;;;;;;21.10;11.70;;;;;;;-2.80;54.05;97352.66;4910486;29;20053;-78
2024/01/10 04:10:21;;;;;;;22.10;11.20;;;;;;;-2.81;53.50;97353.59;4909379;29;20056;-78
2024/01/10 04:12:50;;;;;;;20.45;10.40;;;;;;;-2.82;54.06;97350.22;4906012;29;20140;-78
2024/01/10 04:15:18;;;;;;;21.55;11.98;;;;;;;-2.78;55.04;97358.50;4906021;29;20461;-78
2024/01/10 04:17:46;;;;;;;22.48;11.25;;;;;;;-2.70;56.06;97359.75;4905892;29;20466;-79
2024/01/10 04:20:13;;;;;;;20.75;12.70;;;;;;;-2.65;55.47;97367.19;4907015;29;20060;-77
2024/01/10 04:22:41;;;;;;;23.33;11.95;;;;;;;-2.66;54.86;97369.84;4907803;29;20080;-80
2024/01/10 04:25:09;;;;;;;22.50;12.10;;;;;;;-2.72;54.20;97363.31;4907799;29;20056;-78
2024/01/10 04:27:38;;;;;;;21.70;11.63;;;;;;;-2.76;54.16;97361.81;4906639;29;20519;-78
2024/01/10 04:30:07;;;;;;;25.98;14.10;;;;;;;-2.79;54.53;97367.09;4907304;29;20053;-78
2024/01/10 04:32:35;;;;;;;24.92;12.43;;;;;;;-2.79;54.62;97369.66;4907170;29;20529;-78
2024/01/10 04:35:03;;;;;;;24.52;12.57;;;;;;;-2.82;53.96;97362.97;4907916;29;20052;-78
2024/01/10 04:37:31;;;;;;;25.65;13.40;;;;;;;-2.83;54.63;97358.75;4908758;29;20060;-78
2024/01/10 04:39:58;;;;;;;23.58;13.23;;;;;;;-2.81;54.63;97354.41;4908203;29;20049;-78
2024/01/10 04:42:26;;;;;;;20.33;11.52;;;;;;;-2.77;54.75;97349.97;4907505;29;20057;-78
2024/01/10 04:44:55;;;;;;;23.20;12.68;;;;;;;-2.76;54.96;97351.59;4907372;29;20140;-78
2024/01/10 04:47:23;;;;;;;24.40;12.90;;;;;;;-2.82;54.42;97360.44;4909405;29;20075;-78
2024/01/10 04:49:50;;;;;;;25.77;13.55;;;;;;;-2.85;54.00;97363.13;4907905;29;20064;-78
2024/01/10 04:52:18;;;;;;;23.00;12.90;;;;;;;-2.92;53.95;97362.63;4908198;29;20073;-78
2024/01/10 04:54:46;;;;;;;28.25;14.23;;;;;;;-2.97;54.28;97369.69;4908906;29;20048;-78
2024/01/10 04:57:13;;;;;;;26.75;13.27;;;;;;;-2.98;54.74;97367.22;4909752;29;20099;-78
2024/01/10 04:59:41;;;;;;;25.33;13.73;;;;;;;-3.00;54.77;97367.28;4907443;29;20112;-79
2024/01/10 05:02:10;;;;;;;25.80;13.30;;;;;;;-3.05;54.24;97371.81;4908853;29;20076;-78
2024/01/10 05:04:38;;;;;;;24.48;13.15;;;;;;;-3.10;54.41;97368.69;4908228;29;20052;-78
2024/01/10 05:07:05;;;;;;;23.13;13.32;;;;;;;-3.10;54.57;97368.69;4911772;29;20052;-78
2024/01/10 05:09:33;;;;;;;24.77;13.93;;;;;;;-3.11;54.91;97370.38;4916358;29;20052;-78
2024/01/10 05:12:01;;;;;;;22.65;12.85;;;;;;;-3.14;54.72;97370.56;4915610;29;20059;-78
2024/01/10 05:14:28;;;;;;;24.15;12.93;;;;;;;-3.12;55.33;97362.81;4916445;29;20063;-78
2024/01/10 05:16:56;;;;;;;23.33;13.10;;;;;;;-3.10;55.15;97366.13;4912563;29;20124;-79
2024/01/10 05:19:25;;;;;;;25.13;13.48;;;;;;;-3.10;54.97;97368.69;4910652;29;20056;-78
2024/01/10 05:21:54;;;;;;;37.30;14.02;;;;;;;-3.12;54.63;97367.94;4909925;29;20054;-78
2024/01/10 05:24:21;;;;;;;23.77;12.77;;;;;;;-3.13;54.41;97373.91;4910280;29;20052;-78
2024/01/10 05:26:51;;;;;;;22.70;13.02;;;;;;;-3.15;54.73;97374.03;4908850;29;20077;-78
2024/01/10 05:29:19;;;;;;;21.10;13.27;;;;;;;-3.18;54.63;97374.16;4909510;29;20433;-79
2024/01/10 05:31:47;;;;;;;26.33;13.73;;;;;;;-3.23;54.59;97375.31;4919232;29;20048;-78
2024/01/10 05:34:15;;;;;;;24.40;13.13;;;;;;;-3.28;54.62;97377.25;4907938;29;20063;-79
2024/01/10 05:36:44;;;;;;;26.25;13.00;;;;;;;-3.34;54.98;97378.41;4904524;29;20059;-77
2024/01/10 05:39:12;;;;;;;26.02;13.10;;;;;;;-3.34;55.06;97375.84;4904279;29;20120;-80
2024/01/10 05:41:44;;;;;;;23.55;12.80;;;;;;;-3.32;55.60;97374.03;4904671;29;20116;-77
2024/01/10 05:44:14;;;;;;;24.70;14.25;;;;;;;-3.28;55.75;97379.78;4915424;29;20481;-79
2024/01/10 05:46:42;;;;;;;26.63;13.90;;;;;;;-3.29;55.44;97371.31;4909701;29;20428;-77
2024/01/10 05:49:10;;;;;;;26.75;15.43;;;;;;;-3.25;55.54;97374.56;4904150;29;20116;-78
2024/01/10 05:51:38;;;;;;;25.50;14.35;;;;;;;-3.27;55.47;97366.16;4905196;29;20052;-77
2024/01/10 05:54:08;;;;;;;29.30;13.98;;;;;;;-3.25;55.92;97372.00;4905043;29;20079;-77
2024/01/10 05:56:35;;;;;;;28.58;16.25;;;;;;;-3.23;55.88;97375.31;4904601;29;20520;-80
2024/01/10 05:59:03;;;;;;;28.48;15.43;;;;;;;-3.22;56.33;97371.84;4904282;29;20057;-80
2024/01/10 06:01:30;;;;;;;25.77;14.93;;;;;;;-3.23;56.09;97376.13;4914662;29;20435;-79
2024/01/10 06:03:58;;;;;;;25.60;14.00;;;;;;;-3.25;56.29;97377.94;4922998;29;20143;-80
2024/01/10 06:06:25;;;;;;;26.25;14.60;;;;;;;-3.25;55.87;97382.22;4909283;29;20053;-82
2024/01/10 06:08:53;;;;;;;26.27;14.82;;;;;;;-3.28;55.92;97382.34;4903867;29;20112;-81
2024/01/10 06:11:22;;;;;;;25.65;14.10;;;;;;;-3.31;56.08;97373.13;4904165;29;20048;-79
2024/01/10 06:13:50;;;;;;;25.70;14.90;;;;;;;-3.31;56.22;97376.50;4902802;29;20062;-82
2024/01/10 06:16:24;;;;;;;29.77;16.10;;;;;;;-3.34;56.18;97375.84;4906312;29;20048;-81
2024/01/10 06:18:51;;;;;;;28.05;15.32;;;;;;;-3.36;56.15;97372.53;4931267;29;20113;-81
2024/01/10 06:21:20;;;;;;;27.35;15.32;;;;;;;-3.37;56.05;97384.47;4921348;29;20400;-79
2024/01/10 06:23:47;;;;;;;29.58;16.00;;;;;;;-3.39;56.35;97386.28;4920474;29;20572;-83
2024/01/10 06:26:15;;;;;;;25.92;14.45;;;;;;;-3.42;56.46;97381.31;4919051;29;20052;-81
2024/01/10 06:28:44;;;;;;;26.90;15.00;;;;;;;-3.43;56.86;97378.81;4912261;29;20568;-81
2024/01/10 06:31:12;;;;;;;30.67;15.52;;;;;;;-3.40;56.75;97383.78;4929230;29;20043;-83
2024/01/10 06:33:40;;;;;;;26.23;15.00;;;;;;;-3.40;56.86;97389.72;4926781;29;20076;-84
2024/01/10 06:36:08;;;;;;;30.23;15.38;;;;;;;-3.37;57.22;97381.94;4934461;29;20085;-83
2024/01/10 06:38:36;;;;;;;42.28;17.38;;;;;;;-3.36;57.01;97386.13;4930997;29;20163;-83
2024/01/10 06:41:08;;;;;;;26.63;15.25;;;;;;;-3.37;57.43;97387.03;4931070;29;20073;-84
2024/01/10 06:43:37;;;;;;;26.90;15.30;;;;;;;-3.34;57.03;97391.16;4919226;29;20085;-82
2024/01/10 06:46:06;;;;;;;26.63;15.52;;;;;;;-3.37;56.81;97397.22;4923087;29;20044;-82
2024/01/10 06:48:33;;;;;;;33.05;16.42;;;;;;;-3.40;56.87;97394.00;4929580;29;20048;-81
2024/01/10 06:51:01;;;;;;;27.70;14.77;;;;;;;-3.43;56.98;97397.53;4929246;29;20056;-83
2024/01/10 06:53:29;;;;;;;27.45;14.82;;;;;;;-3.49;57.09;97395.28;4923295;29;20052;-84
2024/01/10 06:55:57;;;;;;;28.88;16.77;;;;;;;-3.51;57.43;97407.28;4913822;29;20138;-81
2024/01/10 06:58:24;;;;;;;24.98;14.70;;;;;;;-3.56;57.04;97409.25;4919976;29;20052;-85
2024/01/10 07:00:53;;;;;;;27.95;15.38;;;;;;;-3.65;57.30;97404.56;4923475;29;20055;-81
2024/01/10 07:03:22;;;;;;;31.92;16.17;;;;;;;-3.65;57.69;97407.09;4926055;29;20048;-82
2024/01/10 07:05:50;;;;;;;29.08;16.50;;;;;;;-3.65;57.64;97415.59;4918212;29;20044;-83
2024/01/10 07:08:18;;;;;;;27.88;14.90;;;;;;;-3.61;58.22;97412.00;4923806;29;20056;-84
2024/01/10 07:10:45;;;;;;;28.92;15.60;;;;;;;-3.55;58.30;97414.25;4918520;29;20083;-81
2024/01/10 07:13:13;;;;;;;30.75;16.45;;;;;;;-3.48;58.47;97413.94;4924585;29;20130;-83
2024/01/10 07:15:41;;;;;;;28.67;16.20;;;;;;;-3.45;58.25;97412.09;4920229;29;20048;-84
2024/01/10 07:18:08;;;;;;;30.38;16.50;;;;;;;-3.43;58.09;97412.84;4924401;29;20048;-82
2024/01/10 07:20:38;;;;;;;31.75;15.73;;;;;;;-3.46;58.24;97412.16;4922000;29;20052;-82
2024/01/10 07:23:05;;;;;;;32.00;16.88;;;;;;;-3.49;57.82;97415.69;4921272;29;20048;-81
2024/01/10 07:25:33;;;;;;;32.30;17.65;;;;;;;-3.49;57.79;97418.22;4924850;29;20045;-86
2024/01/10 07:28:01;;;;;;;31.23;17.25;;;;;;;-3.54;57.77;97425.28;4925282;29;20488;-82
2024/01/10 07:30:32;;;;;;;33.67;17.48;;;;;;;-3.55;58.19;97421.06;4921276;29;20075;-82
2024/01/10 07:33:01;;;;;;;35.88;18.20;;;;;;;-3.54;58.00;97423.56;4912927;29;20119;-82
2024/01/10 07:35:30;;;;;;;31.77;17.23;;;;;;;-3.51;58.35;97417.47;4909790;29;20048;-83
2024/01/10 07:37:59;;;;;;;32.85;17.60;;;;;;;-3.45;59.25;97422.28;4921452;29;20096;-84
2024/01/10 07:40:26;;;;;;;33.78;17.40;;;;;;;-3.37;59.15;97422.75;4923883;29;20115;-84
2024/01/10 07:42:55;;;;;;;35.08;17.65;;;;;;;-3.32;58.62;97430.16;4909082;29;20543;-83
2024/01/10 07:45:23;;;;;;;30.30;18.10;;;;;;;-3.29;58.52;97427.47;4920223;29;20072;-82
2024/01/10 07:47:50;;;;;;;32.88;18.25;;;;;;;-3.28;58.23;97428.28;4906683;29;20579;-84
2024/01/10 07:50:19;;;;;;;34.47;17.88;;;;;;;-3.29;58.01;97424.09;4905555;29;20072;-84
2024/01/10 07:52:47;;;;;;;30.77;17.23;;;;;;;-3.33;58.13;97420.84;4907368;29;20119;-85
2024/01/10 07:55:16;;;;;;;30.95;16.83;;;;;;;-3.35;58.23;97423.47;4907157;29;20049;-83
2024/01/10 07:57:43;;;;;;;34.70;19.17;;;;;;;-3.35;58.07;97432.84;4905570;29;20054;-82
2024/01/10 08:00:12;;;;;;;30.65;16.35;;;;;;;-3.34;57.77;97434.53;4910848;29;20066;-84
2024/01/10 08:02:40;;;;;;;33.58;17.63;;;;;;;-3.34;58.24;97437.88;4923032;29;20052;-83
2024/01/10 08:05:09;;;;;;;30.10;16.95;;;;;;;-3.33;57.95;97443.81;4925069;29;20063;-84
2024/01/10 08:07:38;;;;;;;32.08;19.30;;;;;;;-3.35;57.56;97443.88;4923904;29;20066;-82
2024/01/10 08:10:06;;;;;;;34.28;17.55;;;;;;;-3.36;57.97;97452.44;4925216;29;20506;-84
2024/01/10 08:12:36;;;;;;;31.92;17.23;;;;;;;-3.34;58.08;97460.84;4927688;29;20044;-83
2024/01/10 08:15:04;;;;;;;36.55;19.45;;;;;;;-3.25;58.68;97458.75;4914061;29;20135;-80
2024/01/10 08:17:32;;;;;;;34.50;20.17;;;;;;;-3.18;58.59;97455.00;4929094;29;20067;-84
2024/01/10 08:20:03;;;;;;;34.78;18.17;;;;;;;-3.13;59.15;97455.59;4925726;29;20064;-82
2024/01/10 08:22:31;;;;;;;34.60;18.50;;;;;;;-3.08;58.44;97458.75;4907781;29;20053;-84
2024/01/10 08:24:59;;;;;;;33.28;19.42;;;;;;;-3.09;58.16;97461.38;4908697;29;20144;-83
2024/01/10 08:27:27;;;;;;;34.97;17.90;;;;;;;-3.06;58.46;97474.81;4907969;29;20073;-82
2024/01/10 08:29:56;;;;;;;37.10;19.10;;;;;;;-3.03;58.52;97467.00;4907371;29;20051;-82
2024/01/10 08:32:23;;;;;;;33.83;19.85;;;;;;;-3.03;58.70;97469.56;4932079;29;20512;-84
2024/01/10 08:34:51;;;;;;;33.35;17.05;;;;;;;-3.01;58.58;97466.94;4906728;29;20060;-84
2024/01/10 08:37:19;;;;;;;35.85;19.45;;;;;;;-3.01;58.16;97472.84;4918552;29;20052;-82
2024/01/10 08:39:46;;;;;;;34.05;18.70;;;;;;;-2.99;58.19;97471.06;4908649;29;20799;-83
2024/01/10 08:42:14;;;;;;;36.65;19.30;;;;;;;-2.94;58.61;97474.19;4918686;29;20055;-81
2024/01/10 08:44:42;;;;;;;35.58;19.73;;;;;;;-2.87;58.69;97479.00;4920961;29;20135;-84
2024/01/10 08:47:13;;;;;;;36.72;18.80;;;;;;;-2.83;59.51;97476.22;4903644;29;20079;-85
2024/01/10 08:49:41;;;;;;;30.77;17.90;;;;;;;-2.73;60.23;97479.97;4911467;29;20055;-81
2024/01/10 08:52:09;;;;;;;31.98;18.60;;;;;;;-2.58;59.83;97475.81;4904564;29;20084;-84
2024/01/10 08:54:37;;;;;;;34.83;20.35;;;;;;;-2.45;59.85;97481.09;4913570;29;20116;-86
2024/01/10 08:57:05;;;;;;;34.63;19.50;;;;;;;-2.36;59.83;97487.44;4904195;29;20112;-83
2024/01/10 08:59:32;;;;;;;35.75;19.55;;;;;;;-2.29;59.28;97488.81;4923092;29;20037;-84
2024/01/10 09:02:00;;;;;;;33.40;19.58;;;;;;;-2.28;58.51;97483.59;4923722;29;20032;-84
2024/01/10 09:04:29;;;;;;;33.03;19.42;;;;;;;-2.28;58.21;97480.22;4933920;29;20036;-82
2024/01/10 09:06:57;;;;;;;33.10;18.55;;;;;;;-2.30;58.00;97484.56;4938712;29;20044;-83
2024/01/10 09:09:25;;;;;;;32.35;19.50;;;;;;;-2.37;57.78;97473.84;4925285;29;20079;-83
2024/01/10 09:11:52;;;;;;;34.60;20.92;;;;;;;-2.41;57.93;97481.75;4912120;29;20119;-84
2024/01/10 09:14:20;;;;;;;36.78;21.27;;;;;;;-2.40;58.53;97489.34;4914747;29;20081;-83
2024/01/10 09:16:48;;;;;;;38.15;21.20;;;;;;;-2.37;58.54;97496.03;4924425;29;20052;-85
2024/01/10 09:19:17;;;;;;;40.78;23.17;;;;;;;-2.35;59.38;97499.34;4928967;29;20047;-82
2024/01/10 09:21:46;;;;;;;37.00;20.08;;;;;;;-2.32;58.75;97494.06;4926203;29;20052;-84
2024/01/10 09:24:14;;;;;;;38.92;20.73;;;;;;;-2.32;58.27;97491.50;4925993;29;20079;-82
2024/01/10 09:26:55;;;;;;;43.88;22.30;;;;;;;-2.33;58.45;97489.84;4922041;29;20093;-83
2024/01/10 09:29:24;;;;;;;40.00;22.30;;;;;;;-2.34;58.22;97498.41;4925226;29;20055;-84
2024/01/10 09:31:52;;;;;;;42.30;22.67;;;;;;;-2.33;59.18;97498.34;4914106;29;20048;-82
2024/01/10 09:34:19;;;;;;;36.70;18.85;;;;;;;-2.28;59.21;97498.09;4902921;29;20064;-83
2024/01/10 09:36:49;;;;;;;38.03;19.48;;;;;;;-2.24;58.76;97499.59;4920607;29;20075;-82
2024/01/10 09:39:17;;;;;;;34.90;20.52;;;;;;;-2.17;58.58;97495.00;4924633;29;20122;-82
2024/01/10 09:41:48;;;;;;;36.17;20.40;;;;;;;-2.08;58.94;97505.56;4904547;29;20079;-82
2024/01/10 09:44:17;;;;;;;37.78;21.27;;;;;;;-1.98;58.74;97505.06;4907757;29;20057;-80
2024/01/10 09:46:50;;;;;;;36.88;20.65;;;;;;;-1.90;59.22;97511.44;4921851;29;20048;-82
2024/01/10 09:49:21;;;;;;;33.13;18.75;;;;;;;-1.82;58.34;97503.34;4918816;29;20075;-81
2024/01/10 09:51:51;;;;;;;39.70;19.45;;;;;;;-1.76;59.34;97507.31;4922467;29;20062;-81
2024/01/10 09:54:21;;;;;;;35.17;17.83;;;;;;;-1.69;59.11;97511.19;4909253;29;20606;-82
2024/01/10 09:56:49;;;;;;;36.80;18.13;;;;;;;-1.66;58.75;97514.41;4919774;29;20134;-82
2024/01/10 09:59:17;;;;;;;37.53;20.67;;;;;;;-1.67;58.11;97510.19;4921581;29;20050;-83
2024/01/10 10:01:46;;;;;;;35.70;18.50;;;;;;;-1.66;58.22;97506.72;4916907;29;20496;-83
2024/01/10 10:04:15;;;;;;;30.02;16.85;;;;;;;-1.64;58.19;97505.81;4901308;29;20080;-82
2024/01/10 10:06:42;;;;;;;30.23;18.05;;;;;;;-1.61;58.16;97500.53;4902175;29;20539;-82
2024/01/10 10:09:13;;;;;;;36.35;19.45;;;;;;;-1.51;58.21;97502.50;4901897;29;20044;-83
2024/01/10 10:11:41;;;;;;;32.58;17.85;;;;;;;-1.43;57.98;97493.56;4902806;29;20108;-83
2024/01/10 10:14:16;;;;;;;29.15;16.27;;;;;;;-1.40;57.64;97494.25;4901394;29;20049;-82
2024/01/10 10:16:44;;;;;;;32.17;16.88;;;;;;;-1.33;57.69;97498.09;4912452;29;20431;-82
2024/01/10 10:19:13;;;;;;;27.95;16.17;;;;;;;-1.22;58.00;97496.66;4918650;29;20135;-82
2024/01/10 10:21:51;;;;;;;29.63;16.35;;;;;;;-1.10;58.04;97503.66;4921399;29;20063;-82
2024/01/10 10:24:21;;;;;;;29.33;16.15;;;;;;;-1.06;57.33;97500.84;4920005;29;20048;-83
2024/01/10 10:26:53;;;;;;;30.20;16.17;;;;;;;-1.00;57.53;97499.66;4916359;29;20054;-81
2024/01/10 10:29:20;;;;;;;27.35;15.93;;;;;;;-0.97;57.20;97496.91;4912932;29;20056;-82
2024/01/10 10:31:49;;;;;;;28.13;16.33;;;;;;;-0.92;57.40;97491.53;4917298;29;20084;-82
2024/01/10 10:34:22;;;;;;;29.40;16.73;;;;;;;-0.82;58.44;97502.09;4902526;29;20048;-82
2024/01/10 10:36:49;;;;;;;29.88;16.50;;;;;;;-0.76;57.28;97494.06;4913339;29;20100;-82
2024/01/10 10:39:17;;;;;;;28.08;15.25;;;;;;;-0.67;57.19;97496.06;4915913;29;20056;-82
2024/01/10 10:41:48;;;;;;;29.40;16.20;;;;;;;-0.58;57.21;97498.09;4915132;29;20133;-82
2024/01/10 10:44:20;;;;;;;28.38;16.60;;;;;;;-0.47;57.53;97489.75;4921788;29;20056;-83
2024/01/10 10:46:53;;;;;;;31.52;16.25;;;;;;;-0.39;59.11;97486.72;4935296;29;20099;-82
2024/01/10 10:49:48;;;;;;;26.70;15.98;;;;;;;-0.29;57.09;97486.09;4941438;29;20319;-81
2024/01/10 10:52:17;;;;;;;30.55;17.15;;;;;;;-0.21;57.18;97493.34;4942672;29;20052;-84
2024/01/10 10:54:47;;;;;;;29.20;16.20;;;;;;;-0.17;55.84;97484.53;4920100;29;20139;-82
2024/01/10 10:57:18;;;;;;;28.63;15.88;;;;;;;-0.09;56.19;97487.47;4908440;29;20074;-83
2024/01/10 10:59:47;;;;;;;36.95;19.83;;;;;;;0.04;56.20;97491.84;4917371;29;20071;-83
2024/01/10 11:02:21;;;;;;;33.42;17.38;;;;;;;0.15;57.30;97485.13;4924112;29;20112;-82
2024/01/10 11:04:51;;;;;;;29.77;16.88;;;;;;;0.29;56.56;97486.84;4922501;29;20056;-83
2024/01/10 11:07:20;;;;;;;31.23;17.20;;;;;;;0.38;55.99;97486.25;4906754;29;20064;-82
2024/01/10 11:09:50;;;;;;;30.25;17.17;;;;;;;0.52;55.60;97477.66;4907184;29;20056;-82
2024/01/10 11:12:36;;;;;;;30.45;16.90;;;;;;;0.69;54.73;97480.91;4907930;29;20299;-82
2024/01/10 11:15:20;;;;;;;28.50;17.27;;;;;;;0.84;53.96;97486.81;4908907;29;20151;-82
2024/01/10 11:18:08;;;;;;;31.65;17.67;;;;;;;0.95;53.29;97479.25;4906170;29;20060;-83
2024/01/10 11:21:08;;;;;;;27.92;15.48;;;;;;;0.99;54.00;97475.56;4905288;29;20052;-83
2024/01/10 11:23:42;;;;;;;24.38;15.95;;;;;;;1.10;54.83;97473.09;4916970;29;20059;-83